Latest Weather Observations for Nowra

IDN60801

Issued at 10:32 am EDT Saturday 25 March 2017 (issued every 30 minutes, with the page automatically refreshed every 10 minutes)

About weather observations | Map of weather stations | Latest weather observations for NSW | Other Formats
Station Details ID: 068072 Name: NOWRA RAN AIR STATION AWS Lat: -34.95 Lon: 150.54 Height: 109.0 m
Data from the previous 72 hours. | See also: Recent months at Nowra
Date/Time
EDT
Temp
°C
App
Temp
°C
Dew
Point
°C
Rel
Hum
%
Delta-T
°C
Wind Press
QNH
hPa
Press
MSL
hPa
Rain since
9am
mm
Dir  Spd
km/h
Gust
km/h
Spd
kts
Gust
kts
25/10:30am 20.5 22.0 14.6 69 3.5 CALM 0 0 0 0 1017.4 1017.1 0.0
25/10:00am 20.2 21.7 14.6 70 3.3 CALM 0 4 0 2 1017.2 1016.9 0.0
25/09:30am 19.9 21.0 15.7 77 2.5 NW 4 9 2 5 1017.1 1016.8 0.0
25/09:00am 18.6 18.8 15.8 84 1.7 WNW 9 13 5 7 1017.4 1017.1 3.0
25/08:30am 17.6 18.8 17.3 98 0.2 WNW 7 9 4 5 1017.1 1016.8 3.0
25/08:00am 16.7 19.0 16.7 100 0.0 CALM 0 0 0 0 1017.0 1016.7 3.0
25/07:30am 16.5 17.0 16.5 100 0.0 WNW 9 11 5 6 1017.3 1017.0 3.0
25/07:00am 16.5 18.7 16.5 100 0.0 CALM 0 4 0 2 1016.6 1016.3 3.0
25/06:30am 16.6 18.8 16.6 100 0.0 CALM 0 0 0 0 1016.5 1016.2 3.0
25/06:00am 16.8 19.1 16.8 100 0.0 CALM 0 0 0 0 1016.9 1016.6 3.0
25/05:30am 17.0 18.0 16.8 99 0.1 NW 7 9 4 5 1017.4 1017.1 3.0
25/05:00am 17.1 19.5 16.9 99 0.1 CALM 0 0 0 0 1017.3 1017.0 3.0
25/04:30am 17.3 19.7 17.1 99 0.1 CALM 0 0 0 0 1017.2 1016.9 3.0
25/04:00am 17.3 19.7 17.1 99 0.1 CALM 0 0 0 0 1017.3 1017.0 3.0
25/03:30am 17.3 18.6 17.1 99 0.1 WSW 6 9 3 5 1017.5 1017.2 3.0
25/03:00am 17.4 18.5 17.2 99 0.1 WNW 7 9 4 5 1017.7 1017.4 3.0
25/02:30am 17.5 17.9 17.3 99 0.1 W 11 15 6 8 1017.9 1017.6 3.0
25/02:00am 17.4 18.8 17.4 100 0.0 NW 6 11 3 6 1017.9 1017.6 3.0
25/01:30am 17.4 19.6 17.4 100 0.0 W 2 7 1 4 1018.7 1018.4 3.0
25/01:00am 17.5 18.4 17.5 100 0.0 WNW 9 11 5 6 1019.1 1018.8 3.0
25/12:30am 17.6 18.9 17.6 100 0.0 NNW 7 7 4 4 1019.1 1018.8 3.0
25/12:00am 17.6 18.9 17.6 100 0.0 WNW 7 9 4 5 1019.7 1019.4 3.0
 
Date/Time
EDT
Temp
°C
App
Temp
°C
Dew
Point
°C
Rel
Hum
%
Delta-T
°C
Wind Press
QNH
hPa
Press
MSL
hPa
Rain since
9am
mm
Dir  Spd
km/h
Gust
km/h
Spd
kts
Gust
kts
24/11:30pm 17.8 19.4 17.8 100 0.0 WNW 6 7 3 4 1019.9 1019.6 3.0
24/11:00pm 17.8 19.1 17.6 99 0.1 WNW 7 9 4 5 1020.1 1019.8 3.0
24/10:30pm 18.0 19.0 17.8 99 0.1 W 9 11 5 6 1020.3 1020.0 3.0
24/10:00pm 18.1 19.2 18.1 100 0.0 W 9 11 5 6 1020.5 1020.2 3.0
24/09:30pm 18.1 19.5 17.9 99 0.1 NNW 7 9 4 5 1020.2 1019.9 3.0
24/09:00pm 18.3 19.8 18.1 99 0.1 W 7 9 4 5 1020.4 1020.1 3.0
24/08:30pm 18.2 19.3 18.0 99 0.1 W 9 13 5 7 1020.2 1019.9 3.0
24/08:00pm 18.2 19.9 18.0 99 0.1 NW 6 7 3 4 1019.7 1019.4 3.0
24/07:30pm 18.1 19.2 17.9 99 0.1 W 9 13 5 7 1019.8 1019.5 3.0
24/07:00pm 18.5 20.3 18.2 98 0.2 NNW 6 7 3 4 1019.5 1019.2 3.0
24/06:30pm 18.8 20.1 17.5 92 0.8 ESE 7 9 4 5 1019.5 1019.2 3.0
24/06:00pm 19.1 21.8 17.8 92 0.8 CALM 0 0 0 0 1019.4 1019.1 3.0
24/05:30pm 18.8 21.4 17.6 93 0.7 CALM 0 0 0 0 1019.5 1019.2 3.0
24/05:00pm 18.5 19.5 17.7 95 0.5 ESE 9 11 5 6 1019.5 1019.2 3.0
24/04:33pm 18.3 18.2 17.8 97 0.3 SE 15 20 8 11 1019.5 1019.2 3.0
24/04:30pm 18.4 18.3 17.9 97 0.3 SE 15 20 8 11 1019.5 1019.2 3.0
24/04:07pm 19.2 19.2 19.0 99 0.1 SSE 17 24 9 13 1019.4 1019.1 2.6
24/04:00pm 19.4 20.8 18.7 96 0.4 SE 9 19 5 10 1019.4 1019.1 2.4
24/03:59pm 19.3 20.7 18.6 96 0.4 SE 9 15 5 8 1019.4 1019.1 2.4
24/03:30pm 18.7 18.4 18.2 97 0.3 S 17 22 9 12 1019.9 1019.6 2.2
24/03:26pm 18.9 19.5 18.7 99 0.1 SSE 13 20 7 11 1019.8 1019.5 2.2
24/03:19pm 19.5 21.0 19.0 97 0.3 SE 9 13 5 7 1019.8 1019.5 2.0
24/03:00pm 18.3 18.3 18.0 98 0.2 ESE 15 20 8 11 1020.0 1019.7 1.8
24/02:47pm 18.8 18.2 17.5 92 0.8 ESE 17 28 9 15 1019.9 1019.6 0.8
24/02:30pm 20.6 19.7 16.8 79 2.3 SE 17 24 9 13 1019.9 1019.6 0.4
24/02:00pm 21.1 20.4 16.5 75 2.8 SSE 15 22 8 12 1020.2 1019.9 0.4
24/01:30pm 19.7 20.6 18.4 92 0.8 SSE 11 15 6 8 1020.6 1020.3 0.4
24/01:16pm 19.4 20.3 19.2 99 0.1 SSE 13 20 7 11 1020.7 1020.4 0.4
24/01:00pm 19.8 18.4 16.6 82 1.9 S 19 28 10 15 1020.8 1020.5 0.0
24/12:30pm 20.7 19.6 16.3 76 2.7 SSW 17 22 9 12 1021.0 1020.7 0.0
24/12:00pm 20.1 18.1 17.5 85 1.6 SSW 24 30 13 16 1021.0 1020.7 0.0
24/11:30am 20.6 17.7 15.2 71 3.2 S 24 30 13 16 1021.3 1021.0 0.0
24/11:00am 20.8 19.1 15.8 73 3.0 S 19 24 10 13 1021.2 1020.9 0.0
24/10:30am 20.2 19.0 16.2 78 2.4 SSW 17 20 9 11 1021.2 1020.9 0.0
24/10:00am 19.7 18.1 16.0 79 2.2 S 19 26 10 14 1021.1 1020.8 0.0
24/09:30am 19.5 19.6 16.5 83 1.8 SSW 11 15 6 8 1020.9 1020.6 0.0
24/09:00am 18.9 18.3 15.6 81 2.0 SSW 13 20 7 11 1020.6 1020.3 19.4
24/08:30am 17.9 18.0 16.6 92 0.8 SSW 11 13 6 7 1020.6 1020.3 19.4
24/08:00am 17.3 18.0 17.1 99 0.1 SSW 9 13 5 7 1020.3 1020.0 19.4
24/07:30am 16.7 17.2 16.5 99 0.1 SSW 9 13 5 7 1020.2 1019.9 19.4
24/07:00am 17.0 15.7 16.7 98 0.2 SSW 19 22 10 12 1020.1 1019.8 19.4
24/06:30am 17.1 17.0 16.9 99 0.1 SSW 13 17 7 9 1020.1 1019.8 19.4
24/06:00am 17.1 17.4 16.9 99 0.1 SSW 11 17 6 9 1019.7 1019.4 19.4
24/05:30am 17.2 18.0 17.2 100 0.0 SSW 9 13 5 7 1019.5 1019.2 19.4
24/05:00am 17.3 17.6 17.1 99 0.1 S 11 15 6 8 1019.4 1019.1 19.4
24/04:30am 17.2 16.7 17.0 99 0.1 SSW 15 20 8 11 1019.1 1018.8 19.4
24/04:00am 17.2 17.6 17.2 100 0.0 SSW 11 13 6 7 1019.1 1018.8 19.4
24/03:30am 17.4 17.9 17.4 100 0.0 SSW 11 13 6 7 1019.1 1018.8 19.4
24/03:24am 17.4 17.9 17.4 100 0.0 SSW 11 15 6 8 1019.2 1018.9 19.4
24/03:00am 17.3 17.3 17.3 100 0.0 S 13 19 7 10 1019.5 1019.2 19.2
24/02:53am 17.3 17.3 17.3 100 0.0 S 13 19 7 10 1019.5 1019.2 18.8
24/02:35am 17.4 17.5 17.4 100 0.0 SSW 13 17 7 9 1019.6 1019.3 18.6
24/02:30am 17.4 17.9 17.4 100 0.0 SSW 11 17 6 9 1019.7 1019.4 18.6
24/02:26am 17.5 18.4 17.5 100 0.0 SW 9 15 5 8 1019.7 1019.4 18.4
24/02:21am 17.4 17.9 17.4 100 0.0 SW 11 13 6 7 1019.6 1019.3 18.4
24/02:00am 17.3 17.7 17.3 100 0.0 SSW 11 13 6 7 1019.7 1019.4 18.4
24/01:33am 17.5 17.6 17.5 100 0.0 S 13 17 7 9 1019.8 1019.5 18.4
24/01:30am 17.5 17.6 17.5 100 0.0 S 13 19 7 10 1019.8 1019.5 18.4
24/01:29am 17.5 17.3 17.5 100 0.0 S 15 19 8 10 1019.8 1019.5 18.4
24/01:14am 17.6 17.0 17.6 100 0.0 SSW 17 22 9 12 1019.9 1019.6 18.4
24/01:00am 17.7 18.3 17.7 100 0.0 S 11 20 6 11 1019.8 1019.5 18.2
24/12:50am 17.7 20.4 17.7 100 0.0 CALM 0 0 0 0 1019.7 1019.4 18.2
24/12:36am 17.6 19.1 17.6 100 0.0 S 6 9 3 5 1019.7 1019.4 18.2
24/12:30am 17.6 19.1 17.6 100 0.0 S 6 7 3 4 1019.7 1019.4 18.2
24/12:00am 17.7 18.3 17.7 100 0.0 SW 11 15 6 8 1019.8 1019.5 17.4
 
Date/Time
EDT
Temp
°C
App
Temp
°C
Dew
Point
°C
Rel
Hum
%
Delta-T
°C
Wind Press
QNH
hPa
Press
MSL
hPa
Rain since
9am
mm
Dir  Spd
km/h
Gust
km/h
Spd
kts
Gust
kts
23/11:55pm 17.7 17.9 17.7 100 0.0 SW 13 15 7 8 1019.8 1019.5 17.2
23/11:30pm 17.6 17.8 17.6 100 0.0 SW 13 15 7 8 1019.7 1019.4 17.2
23/11:00pm 17.4 17.9 17.4 100 0.0 WSW 11 15 6 8 1019.8 1019.5 17.0
23/10:30pm 17.5 18.8 17.5 100 0.0 SW 7 11 4 6 1019.9 1019.6 17.0
23/10:09pm 17.4 18.6 17.4 100 0.0 S 7 11 4 6 1019.7 1019.4 17.0
23/10:00pm 17.4 18.2 17.4 100 0.0 SSW 9 13 5 7 1019.9 1019.6 17.0
23/09:30pm 17.4 17.5 17.4 100 0.0 SSW 13 19 7 10 1020.0 1019.7 15.0
23/09:00pm 17.5 16.3 17.5 100 0.0 SSW 20 26 11 14 1019.7 1019.4 11.4
23/08:37pm 17.5 16.9 17.5 100 0.0 SSW 17 24 9 13 1019.5 1019.2 10.2
23/08:30pm 17.6 17.0 17.6 100 0.0 SSW 17 24 9 13 1019.5 1019.2 9.4
23/08:00pm 17.5 17.3 17.5 100 0.0 SSW 15 20 8 11 1019.0 1018.7 8.6
23/07:30pm 17.7 17.2 17.7 100 0.0 SSW 17 24 9 13 1018.6 1018.3 5.0
23/07:00pm 17.9 17.0 17.7 99 0.1 SSW 19 28 10 15 1018.5 1018.2 3.6
23/06:30pm 18.1 18.4 17.9 99 0.1 S 13 19 7 10 1018.0 1017.7 3.2
23/06:00pm 18.3 19.4 18.0 98 0.2 S 9 15 5 8 1018.1 1017.8 3.0
23/05:30pm 18.9 18.2 17.4 91 0.9 SSW 17 24 9 13 1018.0 1017.7 2.0
23/05:00pm 19.2 20.2 17.7 91 0.9 S 9 15 5 8 1017.9 1017.6 2.0
23/04:30pm 19.3 20.3 18.6 96 0.4 S 11 15 6 8 1017.8 1017.5 1.8
23/04:00pm 18.9 20.8 17.6 92 0.8 S 4 13 2 7 1018.0 1017.7 1.4
23/03:30pm 18.8 19.3 18.3 97 0.3 SSW 13 20 7 11 1018.1 1017.8 1.4
23/03:00pm 19.7 19.8 17.5 87 1.3 SSW 13 17 7 9 1018.2 1017.9 0.4
23/02:30pm 20.4 18.8 16.4 78 2.4 SSW 20 30 11 16 1018.2 1017.9 0.0
23/02:27pm 20.4 18.9 16.2 77 2.5 S 19 30 10 16 1018.2 1017.9 0.0
23/02:00pm 20.1 18.6 16.7 81 2.1 S 20 30 11 16 1018.4 1018.1 0.0
23/01:30pm 20.5 19.1 16.5 78 2.4 S 19 26 10 14 1018.8 1018.5 0.0
23/01:00pm 20.4 18.4 16.4 78 2.4 S 22 30 12 16 1019.3 1019.0 0.0
23/12:30pm 20.0 18.4 16.6 81 2.1 S 20 28 11 15 1019.5 1019.2 0.0
23/12:27pm 20.3 19.1 17.1 82 2.0 S 19 22 10 12 1019.5 1019.2 0.0
23/12:00pm 20.0 19.6 17.2 84 1.7 S 15 20 8 11 1019.7 1019.4 0.0
23/11:30am 20.2 19.8 16.2 78 2.4 SSW 13 17 7 9 1019.7 1019.4 0.0
23/11:00am 20.2 19.7 16.0 77 2.5 SSW 13 19 7 10 1019.7 1019.4 0.0
23/10:30am 20.2 18.9 15.8 76 2.6 SSW 17 20 9 11 1019.7 1019.4 0.0
23/10:00am 20.0 18.7 15.8 77 2.5 SSW 17 24 9 13 1019.7 1019.4 0.0
23/09:30am 19.7 17.9 15.6 77 2.4 S 19 26 10 14 1019.5 1019.2 0.0
23/09:00am 18.8 17.1 15.7 82 1.8 SW 19 30 10 16 1019.4 1019.1 12.4
23/08:30am 18.6 17.7 15.8 84 1.7 SSW 15 22 8 12 1019.0 1018.7 12.4
23/08:00am 18.4 18.2 15.8 85 1.5 SSW 11 17 6 9 1018.9 1018.6 12.4
23/07:30am 18.2 17.7 16.0 87 1.3 SW 13 17 7 9 1018.7 1018.4 12.4
23/07:00am 17.7 18.0 15.9 89 1.1 SSW 9 13 5 7 1018.4 1018.1 12.4
23/06:30am 17.9 17.7 15.7 87 1.3 SW 11 15 6 8 1018.1 1017.8 12.4
23/06:00am 18.3 17.7 15.7 85 1.5 SSW 13 17 7 9 1017.8 1017.5 12.4
23/05:30am 18.7 18.5 15.8 83 1.7 SSW 11 15 6 8 1017.7 1017.4 12.4
23/05:00am 18.6 18.1 15.8 84 1.7 SW 13 17 7 9 1017.8 1017.5 12.4
23/04:30am 18.6 17.7 15.8 84 1.7 SSW 15 20 8 11 1017.6 1017.3 12.4
23/04:00am 18.7 18.2 15.9 84 1.7 SSW 13 19 7 10 1017.4 1017.1 12.4
23/03:30am 18.8 18.4 16.2 85 1.6 SSW 13 19 7 10 1017.4 1017.1 12.4
23/03:00am 18.8 18.8 16.2 85 1.6 SW 11 15 6 8 1017.6 1017.3 12.4
23/02:30am 18.8 18.1 16.4 86 1.4 SSW 15 20 8 11 1017.5 1017.2 12.4
23/02:00am 19.0 17.9 16.4 85 1.6 SSW 17 26 9 14 1017.8 1017.5 12.4
23/01:30am 18.9 18.8 16.9 88 1.2 SSW 13 19 7 10 1017.7 1017.4 12.4
23/01:29am 18.9 18.8 16.9 88 1.2 SW 13 19 7 10 1017.6 1017.3 12.4
23/01:00am 18.8 18.5 17.3 91 0.9 S 15 19 8 10 1017.8 1017.5 12.4
23/12:30am 18.8 18.3 17.8 94 0.6 SSW 17 26 9 14 1018.1 1017.8 12.4
23/12:00am 18.8 18.3 18.6 99 0.1 S 19 28 10 15 1017.8 1017.5 12.4
 
Date/Time
EDT
Temp
°C
App
Temp
°C
Dew
Point
°C
Rel
Hum
%
Delta-T
°C
Wind Press
QNH
hPa
Press
MSL
hPa
Rain since
9am
mm
Dir  Spd
km/h
Gust
km/h
Spd
kts
Gust
kts
22/11:44pm 18.8 18.3 18.6 99 0.1 S 19 26 10 14 1017.8 1017.5 12.4
22/11:30pm 18.8 19.1 18.8 100 0.0 S 15 20 8 11 1017.8 1017.5 12.4
22/11:28pm 18.8 19.1 18.8 100 0.0 S 15 19 8 10 1017.8 1017.5 12.4
22/11:17pm 19.0 19.7 18.8 99 0.1 SSW 13 20 7 11 1017.8 1017.5 12.4
22/11:00pm 19.0 19.6 18.7 98 0.2 S 13 17 7 9 1017.9 1017.6 12.4
22/10:57pm 19.2 19.8 18.7 97 0.3 S 13 17 7 9 1017.9 1017.6 12.4
22/10:48pm 19.5 19.9 18.2 92 0.8 SSW 13 20 7 11 1017.7 1017.4 12.4
22/10:30pm 19.6 20.1 18.3 92 0.8 S 13 20 7 11 1017.4 1017.1 12.4
22/10:00pm 19.7 20.0 18.7 94 0.6 SSW 15 22 8 12 1017.1 1016.8 12.4
22/09:30pm 19.9 19.6 19.1 95 0.5 S 19 26 10 14 1016.5 1016.2 12.4
22/09:00pm 20.0 19.9 19.5 97 0.3 S 19 26 10 14 1016.1 1015.8 12.4
22/08:30pm 20.1 20.2 19.9 99 0.1 S 19 30 10 16 1015.9 1015.5 12.4
22/08:00pm 20.2 19.5 20.2 100 0.0 S 24 32 13 17 1015.3 1014.9 12.4
22/07:46pm 20.3 19.6 20.3 100 0.0 S 24 35 13 19 1015.0 1014.6 12.4
22/07:30pm 20.3 19.6 20.3 100 0.0 S 24 35 13 19 1014.9 1014.5 12.4
22/07:00pm 20.9 21.3 20.9 100 0.0 SSE 20 26 11 14 1014.3 1013.9 12.2
22/06:30pm 20.9 21.4 20.9 100 0.0 SSE 19 28 10 15 1013.8 1013.4 12.2
22/06:11pm 22.1 23.4 21.6 97 0.3 ESE 17 35 9 19 1013.5 1013.1 7.4
22/06:00pm 23.5 26.6 23.5 100 0.0 ESE 13 17 7 9 1013.1 1012.7 6.8
22/05:30pm 23.5 27.0 23.5 100 0.0 ESE 11 15 6 8 1012.4 1012.1 6.8
22/05:00pm 23.5 26.4 23.2 98 0.2 ESE 13 17 7 9 1011.0 1010.7 6.8
22/04:45pm 23.3 28.5 22.8 97 0.3 CALM 0 7 0 4 1010.8 1010.5 6.8
22/04:30pm 22.4 24.5 21.7 96 0.5 WSW 13 20 7 11 1010.9 1010.6 6.8
22/04:13pm 23.8 26.2 21.5 87 1.5 N 11 30 6 16 1011.9 1011.6 1.0
22/04:00pm 25.2 27.9 21.3 79 2.6 ENE 9 13 5 7 1011.4 1011.1 0.0
22/03:30pm 26.2 27.5 21.6 76 3.1 ESE 17 20 9 11 1010.8 1010.5 0.0
22/03:00pm 26.8 28.7 21.3 72 3.7 SSE 13 19 7 10 1010.7 1010.4 0.0
22/02:30pm 27.7 28.3 19.5 61 5.3 SSE 15 20 8 11 1010.9 1010.6 0.0
22/02:00pm 28.7 29.9 20.7 62 5.3 SE 15 20 8 11 1011.4 1011.1 0.0
22/01:30pm 28.2 28.9 20.5 63 5.1 SE 17 20 9 11 1011.5 1011.2 0.0
22/01:00pm 28.2 28.9 20.5 63 5.1 SE 17 22 9 12 1011.8 1011.5 0.0
22/12:30pm 29.3 30.1 20.7 59 5.7 SE 17 26 9 14 1011.9 1011.6 0.0
22/12:00pm 28.9 31.1 19.5 57 6.1 SW 7 13 4 7 1011.9 1011.6 0.0
22/11:30am 28.4 32.2 20.2 61 5.4 CALM 0 0 0 0 1012.1 1011.8 0.0
22/11:00am 27.3 28.5 19.1 61 5.3 NW 11 13 6 7 1012.2 1011.9 0.0

Other Formats:

Comma delimited format used in spreadsheet applications
http://www.bom.gov.au/fwo/IDN60801/IDN60801.94750.axf

JavaScript Object Notation format (JSON) in row-major order
http://www.bom.gov.au/fwo/IDN60801/IDN60801.94750.json